createdAt,value
2017-09-17T00:01:13.049Z,8.30
2017-09-17T00:03:39.229Z,8.30
2017-09-17T00:06:05.449Z,8.30
2017-09-17T00:08:32.383Z,8.20
2017-09-17T00:10:59.309Z,8.20
2017-09-17T00:13:25.628Z,8.10
2017-09-17T00:15:51.797Z,8.10
2017-09-17T00:18:18.804Z,8.10
2017-09-17T00:20:44.978Z,8.00
2017-09-17T00:23:11.356Z,8.00
2017-09-17T00:25:39.384Z,8.00
2017-09-17T00:28:05.588Z,8.00
2017-09-17T00:30:31.792Z,8.00
2017-09-17T00:32:57.984Z,8.00
2017-09-17T00:35:24.219Z,8.00
2017-09-17T00:37:50.429Z,8.00
2017-09-17T00:40:16.638Z,8.00
2017-09-17T00:42:43.570Z,7.90
2017-09-17T00:45:09.778Z,7.90
2017-09-17T00:47:35.962Z,7.90
2017-09-17T00:50:02.358Z,7.90
2017-09-17T00:52:28.522Z,7.90
2017-09-17T00:54:54.758Z,7.80
2017-09-17T00:57:21.006Z,7.70
2017-09-17T00:59:47.195Z,7.70
2017-09-17T01:02:13.837Z,7.70
2017-09-17T01:04:40.058Z,7.60
2017-09-17T01:07:06.975Z,7.60
2017-09-17T01:09:33.208Z,7.60
2017-09-17T01:11:59.528Z,7.50
2017-09-17T01:14:25.748Z,7.50
2017-09-17T01:16:51.929Z,7.50
2017-09-17T01:19:18.143Z,7.50
2017-09-17T01:21:45.075Z,7.50
2017-09-17T01:24:11.250Z,7.50
2017-09-17T01:26:37.455Z,7.50
2017-09-17T01:29:04.471Z,7.50
2017-09-17T01:31:30.739Z,7.50
2017-09-17T01:33:57.127Z,7.50
2017-09-17T01:36:23.314Z,7.50
2017-09-17T01:38:49.499Z,7.50
2017-09-17T01:41:15.731Z,7.50
2017-09-17T01:43:42.681Z,7.50
2017-09-17T01:46:09.618Z,7.50
2017-09-17T01:48:35.818Z,7.50
2017-09-17T01:51:02.056Z,7.40
2017-09-17T01:53:28.295Z,7.40
2017-09-17T01:55:55.240Z,7.40
2017-09-17T01:58:21.519Z,7.40
2017-09-17T02:00:47.747Z,7.40
2017-09-17T02:03:13.968Z,7.40
2017-09-17T02:05:40.176Z,7.30
2017-09-17T02:08:07.140Z,7.30
2017-09-17T02:10:33.318Z,7.30
2017-09-17T02:12:59.553Z,7.30
2017-09-17T02:15:25.726Z,7.30
2017-09-17T02:17:51.937Z,7.30
2017-09-17T02:20:18.874Z,7.30
2017-09-17T02:22:45.810Z,7.30
2017-09-17T02:25:12.036Z,7.30
2017-09-17T02:27:38.251Z,7.40
2017-09-17T02:30:04.436Z,7.40
2017-09-17T02:32:30.639Z,7.40
2017-09-17T02:34:57.559Z,7.40
2017-09-17T02:37:23.794Z,7.40
2017-09-17T02:39:50.016Z,7.40
2017-09-17T02:42:16.274Z,7.40
2017-09-17T02:44:43.206Z,7.40
2017-09-17T02:47:09.393Z,7.30
2017-09-17T02:49:35.647Z,7.30
2017-09-17T02:52:01.855Z,7.30
2017-09-17T02:54:28.079Z,7.30
2017-09-17T02:56:54.267Z,7.20
2017-09-17T02:59:21.211Z,7.10
2017-09-17T03:01:47.422Z,7.10
2017-09-17T03:04:13.663Z,7.10
2017-09-17T03:06:40.610Z,7.10
2017-09-17T03:09:07.531Z,7.00
2017-09-17T03:11:33.742Z,7.00
2017-09-17T03:13:59.956Z,7.00
2017-09-17T03:16:26.123Z,6.90
2017-09-17T03:18:52.351Z,6.90
2017-09-17T03:21:18.549Z,6.90
2017-09-17T03:23:44.743Z,6.90
2017-09-17T03:26:10.960Z,6.80
2017-09-17T03:28:37.176Z,6.80
2017-09-17T03:31:04.114Z,6.80
2017-09-17T03:33:30.360Z,6.70
2017-09-17T03:35:56.550Z,6.80
2017-09-17T03:38:22.721Z,6.80
2017-09-17T03:40:49.700Z,6.70
2017-09-17T03:43:15.860Z,6.60
2017-09-17T03:45:42.080Z,6.60
2017-09-17T03:48:08.311Z,6.60
2017-09-17T03:50:34.512Z,6.50
2017-09-17T03:53:00.872Z,6.60
2017-09-17T03:55:27.072Z,6.60
2017-09-17T03:57:53.262Z,6.60
2017-09-17T04:00:20.210Z,6.50
2017-09-17T04:02:47.221Z,6.50
2017-09-17T04:05:13.387Z,6.50
2017-09-17T04:07:39.618Z,6.50
2017-09-17T04:10:05.850Z,6.40
2017-09-17T04:12:32.051Z,6.40
2017-09-17T04:14:58.263Z,6.40
2017-09-17T04:17:24.466Z,6.50
2017-09-17T04:19:50.719Z,6.50
2017-09-17T04:22:16.982Z,6.50
2017-09-17T04:24:43.973Z,6.50
2017-09-17T04:27:10.195Z,6.50
2017-09-17T04:29:36.387Z,6.60
2017-09-17T04:32:02.629Z,6.60
2017-09-17T04:34:28.847Z,6.60
2017-09-17T04:36:55.047Z,6.60
2017-09-17T04:39:21.284Z,6.60
2017-09-17T04:41:47.519Z,6.70
2017-09-17T04:44:14.465Z,6.80
2017-09-17T04:46:41.427Z,6.80
2017-09-17T04:49:08.372Z,6.90
2017-09-17T04:51:34.592Z,6.90
2017-09-17T04:54:01.539Z,7.00
2017-09-17T04:56:27.738Z,7.00
2017-09-17T04:58:53.986Z,7.00
2017-09-17T05:01:20.944Z,7.20
2017-09-17T05:03:47.174Z,7.30
2017-09-17T05:06:13.447Z,7.40
2017-09-17T05:08:39.638Z,7.40
2017-09-17T05:11:05.870Z,7.50
2017-09-17T05:13:32.087Z,7.50
2017-09-17T05:15:59.123Z,7.60
2017-09-17T05:18:26.149Z,7.50
2017-09-17T05:20:52.349Z,7.50
2017-09-17T05:23:18.560Z,7.70
2017-09-17T05:25:44.825Z,7.70
2017-09-17T05:28:11.056Z,7.70
2017-09-17T05:30:37.265Z,7.80
2017-09-17T05:33:03.576Z,7.90
2017-09-17T05:35:29.763Z,7.90
2017-09-17T05:37:56.027Z,8.10
2017-09-17T05:40:22.425Z,8.10
2017-09-17T05:42:48.654Z,8.30
2017-09-17T05:45:14.939Z,8.40
2017-09-17T05:47:41.211Z,8.60
2017-09-17T05:50:07.425Z,8.70
2017-09-17T05:52:33.686Z,8.80
2017-09-17T05:55:00.685Z,9.00
2017-09-17T05:57:26.875Z,9.00
2017-09-17T05:59:53.822Z,9.30
2017-09-17T06:02:20.040Z,9.30
2017-09-17T06:04:47.042Z,9.50
2017-09-17T06:07:13.257Z,9.50
2017-09-17T06:09:39.468Z,9.60
2017-09-17T06:12:05.684Z,9.80
2017-09-17T06:14:31.904Z,9.90
2017-09-17T06:16:58.884Z,10.10
2017-09-17T06:19:25.112Z,10.10
2017-09-17T06:21:51.331Z,10.10
2017-09-17T06:24:17.602Z,10.30
2017-09-17T06:26:43.839Z,10.20
2017-09-17T06:29:10.032Z,10.50
2017-09-17T06:31:36.284Z,10.50
2017-09-17T06:34:02.492Z,10.50
2017-09-17T06:36:28.706Z,10.50
2017-09-17T06:38:54.932Z,10.70
2017-09-17T06:41:21.132Z,10.90
2017-09-17T06:43:48.080Z,10.90
2017-09-17T06:46:15.124Z,11.10
2017-09-17T06:48:42.172Z,11.00
2017-09-17T06:51:09.089Z,11.00
2017-09-17T06:53:35.409Z,11.00
2017-09-17T06:56:01.855Z,11.20
2017-09-17T06:58:28.050Z,11.10
2017-09-17T07:00:54.293Z,11.10
2017-09-17T07:03:20.503Z,11.40
2017-09-17T07:05:46.793Z,11.40
2017-09-17T07:08:13.763Z,12.00
2017-09-17T07:10:39.969Z,12.00
2017-09-17T07:13:07.863Z,12.10
2017-09-17T07:15:34.058Z,12.00
2017-09-17T07:18:00.237Z,12.40
2017-09-17T07:20:26.446Z,12.40
2017-09-17T07:22:52.646Z,12.50
2017-09-17T07:25:18.843Z,12.80
2017-09-17T07:27:45.051Z,12.90
2017-09-17T07:30:11.247Z,12.70
2017-09-17T07:32:37.473Z,12.90
2017-09-17T07:35:03.683Z,13.30
2017-09-17T07:37:30.621Z,13.60
2017-09-17T07:39:56.869Z,13.60
2017-09-17T07:42:23.836Z,13.90
2017-09-17T07:44:50.022Z,14.00
2017-09-17T07:47:16.255Z,14.00
2017-09-17T07:49:42.478Z,14.10
2017-09-17T07:52:08.712Z,14.20
2017-09-17T07:54:35.002Z,14.60
2017-09-17T07:57:01.316Z,14.30
2017-09-17T07:59:27.520Z,14.90
2017-09-17T08:01:54.465Z,14.60
2017-09-17T08:04:21.466Z,14.60
2017-09-17T08:06:47.735Z,14.60
2017-09-17T08:09:14.726Z,14.40
2017-09-17T08:11:40.977Z,14.40
2017-09-17T08:14:07.225Z,14.80
2017-09-17T08:16:33.435Z,15.00
2017-09-17T08:18:59.619Z,15.20
2017-09-17T08:21:25.817Z,14.90
2017-09-17T08:23:52.071Z,15.20
2017-09-17T08:26:18.285Z,15.50
2017-09-17T08:28:45.231Z,15.20
2017-09-17T08:31:12.179Z,15.10
2017-09-17T08:33:39.111Z,15.20
2017-09-17T08:36:06.143Z,15.20
2017-09-17T08:38:32.372Z,15.30
2017-09-17T08:40:58.559Z,14.90
2017-09-17T08:43:24.735Z,15.00
2017-09-17T08:45:50.883Z,15.10
2017-09-17T08:48:17.798Z,15.00
2017-09-17T08:50:43.964Z,15.00
2017-09-17T08:53:10.873Z,15.40
2017-09-17T08:55:37.076Z,15.40
2017-09-17T08:58:03.248Z,15.30
2017-09-17T09:00:30.172Z,14.80
2017-09-17T09:02:56.328Z,14.80
2017-09-17T09:05:23.220Z,15.20
2017-09-17T09:07:49.842Z,15.20
2017-09-17T09:10:16.024Z,15.50
2017-09-17T09:12:42.198Z,15.80
2017-09-17T09:15:08.370Z,15.80
2017-09-17T09:17:34.562Z,15.60
2017-09-17T09:20:00.759Z,15.80
2017-09-17T09:22:27.698Z,16.20
2017-09-17T09:24:54.616Z,16.20
2017-09-17T09:27:20.818Z,16.20
2017-09-17T09:29:46.985Z,16.40
2017-09-17T09:32:13.187Z,16.50
2017-09-17T09:34:39.415Z,16.50
2017-09-17T09:37:05.587Z,16.60
2017-09-17T09:39:32.516Z,15.90
2017-09-17T09:41:59.419Z,16.50
2017-09-17T09:44:25.655Z,16.50
2017-09-17T09:46:51.823Z,16.70
2017-09-17T09:49:18.730Z,16.90
2017-09-17T09:51:45.001Z,16.90
2017-09-17T09:54:11.923Z,16.80
2017-09-17T09:56:38.127Z,16.70
2017-09-17T09:59:04.363Z,17.10
2017-09-17T10:01:30.612Z,16.90
2017-09-17T10:03:56.844Z,16.60
2017-09-17T10:06:23.064Z,17.10
2017-09-17T10:08:49.284Z,17.10
2017-09-17T10:11:15.536Z,17.20
2017-09-17T10:13:41.803Z,16.80
2017-09-17T10:16:07.991Z,16.80
2017-09-17T10:18:34.996Z,17.00
2017-09-17T10:21:01.192Z,17.00
2017-09-17T10:23:28.113Z,17.30
2017-09-17T10:25:54.339Z,17.30
2017-09-17T10:28:21.268Z,17.60
2017-09-17T10:30:47.462Z,17.60
2017-09-17T10:33:13.663Z,17.70
2017-09-17T10:35:40.582Z,17.60
2017-09-17T10:38:06.789Z,17.60
2017-09-17T10:40:33.059Z,17.60
2017-09-17T10:42:59.998Z,17.80
2017-09-17T10:45:26.949Z,18.00
2017-09-17T10:47:53.880Z,18.10
2017-09-17T10:50:20.079Z,18.10
2017-09-17T10:52:46.267Z,18.50
2017-09-17T10:55:12.483Z,18.80
2017-09-17T10:57:38.718Z,18.60
2017-09-17T11:00:05.644Z,19.10
2017-09-17T11:02:32.689Z,19.50
2017-09-17T11:04:58.909Z,19.50
2017-09-17T11:07:25.129Z,19.60
2017-09-17T11:09:51.951Z,19.80
2017-09-17T11:12:18.209Z,19.70
2017-09-17T11:14:44.421Z,19.70
2017-09-17T11:17:11.559Z,19.10
2017-09-17T11:19:37.777Z,19.40
2017-09-17T11:22:04.013Z,19.70
2017-09-17T11:24:30.271Z,20.10
2017-09-17T11:26:56.441Z,19.80
2017-09-17T11:29:22.628Z,21.80
2017-09-17T11:31:48.850Z,23.40
2017-09-17T11:34:15.038Z,24.10
2017-09-17T11:36:41.315Z,26.40
2017-09-17T11:39:07.523Z,25.10
2017-09-17T11:41:33.731Z,25.50
2017-09-17T11:43:59.937Z,26.00
2017-09-17T11:46:26.110Z,27.80
2017-09-17T11:48:52.294Z,29.30
2017-09-17T11:51:18.517Z,31.50
2017-09-17T11:53:44.761Z,30.20
2017-09-17T11:56:10.974Z,28.10
2017-09-17T11:58:37.316Z,28.20
2017-09-17T12:01:03.544Z,29.20
2017-09-17T12:03:29.772Z,28.70
2017-09-17T12:05:55.954Z,29.50
2017-09-17T12:08:23.642Z,32.40
2017-09-17T12:10:51.011Z,31.80
2017-09-17T12:13:17.222Z,31.70
2017-09-17T12:15:44.183Z,27.60
2017-09-17T12:18:17.440Z,27.40
2017-09-17T12:20:43.771Z,26.30
2017-09-17T12:23:09.998Z,25.40
2017-09-17T12:25:36.236Z,25.80
2017-09-17T12:28:02.556Z,26.60
2017-09-17T12:30:28.722Z,27.10
2017-09-17T12:32:55.674Z,25.70
2017-09-17T12:35:21.919Z,25.60
2017-09-17T12:37:48.091Z,26.10
2017-09-17T12:40:15.092Z,28.30
2017-09-17T12:42:41.277Z,29.80
2017-09-17T12:45:07.491Z,30.20
2017-09-17T12:47:33.748Z,31.80
2017-09-17T12:50:00.711Z,31.90
2017-09-17T12:52:26.907Z,31.90
2017-09-17T12:54:53.126Z,31.70
2017-09-17T12:57:20.562Z,30.30
2017-09-17T12:59:46.793Z,30.30
2017-09-17T13:02:13.027Z,32.20
2017-09-17T13:04:39.208Z,31.80
2017-09-17T13:07:05.433Z,29.40
2017-09-17T13:09:32.428Z,30.70
2017-09-17T13:11:58.593Z,30.70
2017-09-17T13:14:25.536Z,30.60
2017-09-17T13:16:52.499Z,27.50
2017-09-17T13:19:19.444Z,29.10
2017-09-17T13:21:46.390Z,30.00
2017-09-17T13:24:13.388Z,31.40
2017-09-17T13:26:39.584Z,31.40
2017-09-17T13:29:05.832Z,30.00
2017-09-17T13:31:32.098Z,29.20
2017-09-17T13:33:59.014Z,30.00
2017-09-17T13:36:25.408Z,30.00
2017-09-17T13:38:51.620Z,31.90
2017-09-17T13:41:19.050Z,33.10
2017-09-17T13:43:45.234Z,33.10
2017-09-17T13:46:11.437Z,32.90
2017-09-17T13:48:38.807Z,33.80
2017-09-17T13:51:05.027Z,33.70
2017-09-17T13:53:31.967Z,33.60
2017-09-17T13:55:58.928Z,35.20
2017-09-17T13:58:25.143Z,35.20
2017-09-17T14:00:52.080Z,35.30
2017-09-17T14:03:19.939Z,33.80
2017-09-17T14:05:47.132Z,33.70
2017-09-17T14:08:13.308Z,35.20
2017-09-17T14:10:41.380Z,35.80
2017-09-17T14:13:07.568Z,34.30
2017-09-17T14:15:33.738Z,31.70
2017-09-17T14:17:59.980Z,32.40
2017-09-17T14:20:26.910Z,33.80
2017-09-17T14:22:53.106Z,33.70
2017-09-17T14:25:19.300Z,32.50
2017-09-17T14:27:45.519Z,33.10
2017-09-17T14:30:12.471Z,34.00
2017-09-17T14:32:46.508Z,34.80
2017-09-17T14:35:12.696Z,34.80
2017-09-17T14:37:39.664Z,35.80
2017-09-17T14:40:05.882Z,35.70
2017-09-17T14:42:32.826Z,35.90
2017-09-17T14:44:59.747Z,36.40
2017-09-17T14:47:25.942Z,36.40
2017-09-17T14:49:52.138Z,36.20
2017-09-17T14:52:18.362Z,36.50
2017-09-17T14:54:44.562Z,37.80
2017-09-17T14:57:10.768Z,37.10
2017-09-17T14:59:36.954Z,37.10
2017-09-17T15:02:03.173Z,38.20
2017-09-17T15:04:31.914Z,35.00
2017-09-17T15:06:58.097Z,35.00
2017-09-17T15:09:24.333Z,32.40
2017-09-17T15:11:50.529Z,31.90
2017-09-17T15:14:17.546Z,31.10
2017-09-17T15:16:43.766Z,31.10
2017-09-17T15:19:09.995Z,32.40
2017-09-17T15:21:36.249Z,32.00
2017-09-17T15:24:02.520Z,33.60
2017-09-17T15:26:28.723Z,33.90
2017-09-17T15:28:55.660Z,34.00
2017-09-17T15:31:21.881Z,34.00
2017-09-17T15:33:48.117Z,34.70
2017-09-17T15:36:14.375Z,35.00
2017-09-17T15:38:40.595Z,35.30
2017-09-17T15:41:07.519Z,34.00
2017-09-17T15:43:33.742Z,33.90
2017-09-17T15:45:59.980Z,33.60
2017-09-17T15:48:26.899Z,34.60
2017-09-17T15:50:53.090Z,34.60
2017-09-17T15:53:19.326Z,33.80
2017-09-17T15:55:46.054Z,32.90
2017-09-17T15:58:12.254Z,33.00
2017-09-17T16:00:38.478Z,31.30
2017-09-17T16:03:04.682Z,28.60
2017-09-17T16:05:30.858Z,26.50
2017-09-17T16:07:57.089Z,24.60
2017-09-17T16:10:23.307Z,23.80
2017-09-17T16:12:50.260Z,22.50
2017-09-17T16:15:16.484Z,22.40
2017-09-17T16:17:43.462Z,21.70
2017-09-17T16:20:09.671Z,21.70
2017-09-17T16:22:35.865Z,21.30
2017-09-17T16:25:02.071Z,21.10
2017-09-17T16:27:28.300Z,20.80
2017-09-17T16:29:54.706Z,20.60
2017-09-17T16:32:20.998Z,20.30
2017-09-17T16:34:48.005Z,20.00
2017-09-17T16:37:14.195Z,19.90
2017-09-17T16:39:40.396Z,19.80
2017-09-17T16:42:07.519Z,19.40
2017-09-17T16:44:33.719Z,19.30
2017-09-17T16:46:59.925Z,18.90
2017-09-17T16:49:26.170Z,18.70
2017-09-17T16:51:52.360Z,18.40
2017-09-17T16:54:18.587Z,18.30
2017-09-17T16:56:44.791Z,18.10
2017-09-17T16:59:11.271Z,18.00
2017-09-17T17:01:37.453Z,17.90
2017-09-17T17:04:03.629Z,17.90
2017-09-17T17:06:29.805Z,17.80
2017-09-17T17:08:55.979Z,17.70
2017-09-17T17:11:22.937Z,17.50
2017-09-17T17:13:49.167Z,17.40
2017-09-17T17:16:15.332Z,17.30
2017-09-17T17:18:41.511Z,17.10
2017-09-17T17:21:07.900Z,16.90
2017-09-17T17:23:34.083Z,16.70
2017-09-17T17:26:00.289Z,16.50
2017-09-17T17:28:27.252Z,16.20
2017-09-17T17:30:53.448Z,16.10
2017-09-17T17:33:20.328Z,16.00
2017-09-17T17:35:46.536Z,15.80
2017-09-17T17:38:13.498Z,15.40
2017-09-17T17:40:39.759Z,15.40
2017-09-17T17:43:06.940Z,15.20
2017-09-17T17:45:33.169Z,15.20
2017-09-17T17:47:59.416Z,15.10
2017-09-17T17:50:26.547Z,14.80
2017-09-17T17:52:52.804Z,14.80
2017-09-17T17:55:19.772Z,14.60
2017-09-17T17:57:46.032Z,14.60
2017-09-17T18:00:12.293Z,14.50
2017-09-17T18:02:39.231Z,14.40
2017-09-17T18:05:06.977Z,14.30
2017-09-17T18:07:33.198Z,14.30
2017-09-17T18:09:59.470Z,14.30
2017-09-17T18:12:26.463Z,14.20
2017-09-17T18:14:52.738Z,14.20
2017-09-17T18:17:19.722Z,14.00
2017-09-17T18:19:45.930Z,14.00
2017-09-17T18:22:13.237Z,13.90
2017-09-17T18:24:39.482Z,13.90
2017-09-17T18:27:06.421Z,13.80
2017-09-17T18:29:32.716Z,13.70
2017-09-17T18:31:58.954Z,13.80
2017-09-17T18:34:25.218Z,13.80
2017-09-17T18:36:51.481Z,13.70
2017-09-17T18:39:18.442Z,13.70
2017-09-17T18:41:44.715Z,13.70
2017-09-17T18:44:10.922Z,13.60
2017-09-17T18:46:37.180Z,13.60
2017-09-17T18:49:03.415Z,13.50
2017-09-17T18:51:29.630Z,13.30
2017-09-17T18:53:55.849Z,13.10
2017-09-17T18:56:22.125Z,13.00
2017-09-17T18:58:49.091Z,12.90
2017-09-17T19:01:15.345Z,12.80
2017-09-17T19:03:41.544Z,12.80
2017-09-17T19:06:07.801Z,12.70
2017-09-17T19:08:34.390Z,12.70
2017-09-17T19:11:01.349Z,12.60
2017-09-17T19:13:28.307Z,12.70
2017-09-17T19:15:54.586Z,12.60
2017-09-17T19:18:20.870Z,12.70
2017-09-17T19:20:47.132Z,12.70
2017-09-17T19:23:13.400Z,12.90
2017-09-17T19:25:39.608Z,13.00
2017-09-17T19:28:05.871Z,13.00
2017-09-17T19:30:32.172Z,13.00
2017-09-17T19:32:58.413Z,13.00
2017-09-17T19:35:25.737Z,13.00
2017-09-17T19:37:51.953Z,12.90
2017-09-17T19:40:18.173Z,12.90
2017-09-17T19:42:44.971Z,13.00
2017-09-17T19:45:11.912Z,12.90
2017-09-17T19:47:39.540Z,13.00
2017-09-17T19:50:05.761Z,13.00
2017-09-17T19:52:32.018Z,13.00
2017-09-17T19:54:58.263Z,13.00
2017-09-17T19:57:25.296Z,13.00
2017-09-17T19:59:51.507Z,13.00
2017-09-17T20:02:17.720Z,13.00
2017-09-17T20:04:43.932Z,13.00
2017-09-17T20:07:10.121Z,13.00
2017-09-17T20:09:37.098Z,13.00
2017-09-17T20:12:03.306Z,13.00
2017-09-17T20:14:30.240Z,13.00
2017-09-17T20:16:57.198Z,13.00
2017-09-17T20:19:24.165Z,13.10
2017-09-17T20:21:50.402Z,13.10
2017-09-17T20:24:16.634Z,13.10
2017-09-17T20:26:42.831Z,13.00
2017-09-17T20:29:09.784Z,13.00
2017-09-17T20:31:36.709Z,13.00
2017-09-17T20:34:03.672Z,13.00
2017-09-17T20:36:30.597Z,13.00
2017-09-17T20:38:57.556Z,13.10
2017-09-17T20:41:24.537Z,13.20
2017-09-17T20:43:50.733Z,13.20
2017-09-17T20:46:17.667Z,13.30
2017-09-17T20:48:44.607Z,13.40
2017-09-17T20:51:11.596Z,13.40
2017-09-17T20:53:37.809Z,13.30
2017-09-17T20:56:04.879Z,13.30
2017-09-17T20:58:31.108Z,13.40
2017-09-17T21:00:57.284Z,13.40
2017-09-17T21:03:23.490Z,13.30
2017-09-17T21:05:49.928Z,13.20
2017-09-17T21:08:16.151Z,13.20
2017-09-17T21:10:42.323Z,13.20
2017-09-17T21:13:09.339Z,13.20
2017-09-17T21:15:35.567Z,13.20
2017-09-17T21:18:01.779Z,13.20
2017-09-17T21:20:27.981Z,13.00
2017-09-17T21:22:54.137Z,13.00
2017-09-17T21:25:20.301Z,13.00
2017-09-17T21:27:47.252Z,12.70
2017-09-17T21:30:14.188Z,12.60
2017-09-17T21:32:40.446Z,12.60
2017-09-17T21:35:07.348Z,12.50
2017-09-17T21:37:33.557Z,12.50
2017-09-17T21:39:59.809Z,12.50
2017-09-17T21:42:26.013Z,12.40
2017-09-17T21:44:52.240Z,12.40
2017-09-17T21:47:18.462Z,12.40
2017-09-17T21:49:44.673Z,12.30
2017-09-17T21:52:10.903Z,12.20
2017-09-17T21:54:37.112Z,12.10
2017-09-17T21:57:03.300Z,12.10
2017-09-17T21:59:31.000Z,12.00
2017-09-17T22:01:57.196Z,12.00
2017-09-17T22:04:23.419Z,12.10
2017-09-17T22:06:50.344Z,12.10
2017-09-17T22:09:16.594Z,12.10
2017-09-17T22:11:42.820Z,12.10
2017-09-17T22:14:08.985Z,12.10
2017-09-17T22:16:35.908Z,12.00
2017-09-17T22:19:03.599Z,11.80
2017-09-17T22:21:29.795Z,11.80
2017-09-17T22:23:56.023Z,11.70
2017-09-17T22:26:22.231Z,11.70
2017-09-17T22:28:48.395Z,11.70
2017-09-17T22:31:15.351Z,11.70
2017-09-17T22:33:42.299Z,11.70
2017-09-17T22:36:09.207Z,11.80
2017-09-17T22:38:35.396Z,11.70
2017-09-17T22:41:01.574Z,11.80
2017-09-17T22:43:27.744Z,11.90
2017-09-17T22:45:53.912Z,11.90
2017-09-17T22:48:20.162Z,12.00
2017-09-17T22:50:46.331Z,11.90
2017-09-17T22:53:12.520Z,12.00
2017-09-17T22:55:39.464Z,11.80
2017-09-17T22:58:06.397Z,11.80
2017-09-17T23:00:32.600Z,11.80
2017-09-17T23:02:58.764Z,11.80
2017-09-17T23:05:25.690Z,11.80
2017-09-17T23:07:51.916Z,11.80
2017-09-17T23:10:18.156Z,11.70
2017-09-17T23:12:44.351Z,11.60
2017-09-17T23:15:10.562Z,11.60
2017-09-17T23:17:36.740Z,11.70
2017-09-17T23:20:02.958Z,11.80
2017-09-17T23:22:29.210Z,11.80
2017-09-17T23:24:56.169Z,11.80
2017-09-17T23:27:23.054Z,11.90
2017-09-17T23:29:49.239Z,11.90
2017-09-17T23:32:16.163Z,11.90
2017-09-17T23:34:42.335Z,11.90
2017-09-17T23:37:08.525Z,11.90
2017-09-17T23:39:35.477Z,11.70
2017-09-17T23:42:02.397Z,11.80
2017-09-17T23:44:28.603Z,11.70
2017-09-17T23:46:54.805Z,11.80
2017-09-17T23:49:20.979Z,11.90
2017-09-17T23:51:47.157Z,11.90
2017-09-17T23:54:13.342Z,12.00
2017-09-17T23:56:39.511Z,12.00
2017-09-17T23:59:06.453Z,12.10
